Timmonsville, SC (29161)

10:40 AM EDT on September 01, 2015 (GMT -0400)
West Lakes | | Change Station
CLOSE
Current Station
Personal Weather Station
Location: Florence, SC
Elevation: 135 ft
Nearby Weather Stations

Elev 135 ft 34.15 °N, 79.89 °W | Updated 6 minutes ago

Clear
Clear
81.6 °F
Feels Like 88 °F
N
2.0
Wind Variable Wind from WNW
Gusts 5.0 mph

Today
High -- | Low -- °F
--% Chance of Precip.
Yesterday
High -- | Low -- °F
Precip. -- in
6:53 AM 7:46 PM
Waning Gibbous, 88% visible
Pressure 30.12 in
Visibility 10.0 miles
Clouds Clear
Heat Index 88 °F
Dew Point 75 °F
Humidity 80%
Rainfall 0.04 in
Snow Depth Not available.
UV 4 out of 12
Pollen 8.10 out of 12
Air Quality Not available.
Flu Activity Not available.
METAR KFLO 011353Z AUTO 00000KT 10SM CLR 26/22 A3013 RMK AO2 SLP200 T02610217
Pressure 30.12 in
Visibility 10.0 miles
Clouds Clear
Heat Index 88 °F
Dew Point 75 °F
Humidity 80%
Rainfall 0.04 in
Snow Depth Not available.
UV 4 out of 12
Pollen 8.10 out of 12
Air Quality Not available.
Flu Activity Not available.
METAR KFLO 011353Z AUTO 00000KT 10SM CLR 26/22 A3013 RMK AO2 SLP200 T02610217

10-Day Weather Forecast

×

Almanac

Astronomy

Sep. 01, 2015 Rise Set
Actual Time
Civil Twilight
Nautical Twilight
Astronomical Twilight
Moon
Length of Visible Light
Length of Day
Tomorrow will be .
, % of the Moon is Illuminated

Today's Extremes

State Highs State Lows

Community

WunderPhotos

Upload Photos

1,851,513 photos uploaded!

WunderBlogs® & News

Nearby

Air Quality

  Air Quality AQ Index Pollutant
Not available.

Snow Depth

Station Depth Elevation

Earthquake Activity

City Distance Mag. Time & Date
Minimum magnitude displayed is 2.5.

Coastal Water Temperatures

Place Temperature

Stations

Nearby Weather Stations

Station Location Temp. Windchill Dew Point Humidity Wind Precip. Elev Updated Type